sensor_id;sensor_type;location;lat;lon;timestamp;P1;durP1;ratioP1;P2;durP2;ratioP2
78668;SDS011;67984;45.118;20.724;2023-02-22T05:19:57;29.05;;;14.73;;
78668;SDS011;67984;45.118;20.724;2023-02-22T05:29:58;32.28;;;14.88;;
78668;SDS011;67984;45.118;20.724;2023-02-22T05:39:59;32.42;;;14.63;;
78668;SDS011;67984;45.118;20.724;2023-02-22T06:00:01;34.53;;;15.23;;
78668;SDS011;67984;45.118;20.724;2023-02-22T06:10:13;41.60;;;19.52;;
78668;SDS011;67984;45.118;20.724;2023-02-22T06:30:16;44.65;;;22.30;;
78668;SDS011;67984;45.118;20.724;2023-02-22T06:40:18;36.92;;;18.08;;
78668;SDS011;67984;45.118;20.724;2023-02-22T06:50:23;61.80;;;22.57;;
78668;SDS011;67984;45.118;20.724;2023-02-22T07:00:26;60.38;;;19.13;;
78668;SDS011;67984;45.118;20.724;2023-02-22T07:10:47;25.90;;;13.30;;
78668;SDS011;67984;45.118;20.724;2023-02-22T07:20:49;27.65;;;13.70;;
78668;SDS011;67984;45.118;20.724;2023-02-22T07:30:50;28.85;;;14.30;;
78668;SDS011;67984;45.118;20.724;2023-02-22T07:40:51;31.60;;;15.07;;
78668;SDS011;67984;45.118;20.724;2023-02-22T07:50:51;40.37;;;18.30;;
78668;SDS011;67984;45.118;20.724;2023-02-22T08:00:52;26.80;;;13.67;;
78668;SDS011;67984;45.118;20.724;2023-02-22T08:10:53;31.83;;;15.38;;
78668;SDS011;67984;45.118;20.724;2023-02-22T08:20:55;39.22;;;21.33;;
78668;SDS011;67984;45.118;20.724;2023-02-22T08:30:55;36.80;;;18.38;;
78668;SDS011;67984;45.118;20.724;2023-02-22T08:40:56;35.63;;;17.23;;
78668;SDS011;67984;45.118;20.724;2023-02-22T08:50:57;62.33;;;22.60;;
78668;SDS011;67984;45.118;20.724;2023-02-22T09:00:58;28.73;;;13.60;;
78668;SDS011;67984;45.118;20.724;2023-02-22T09:10:59;25.83;;;12.07;;
78668;SDS011;67984;45.118;20.724;2023-02-22T09:20:59;24.73;;;14.37;;
78668;SDS011;67984;45.118;20.724;2023-02-22T09:31:01;27.98;;;15.07;;
78668;SDS011;67984;45.118;20.724;2023-02-22T09:41:24;20.00;;;10.63;;
78668;SDS011;67984;45.118;20.724;2023-02-22T09:51:33;15.52;;;6.80;;
78668;SDS011;67984;45.118;20.724;2023-02-22T10:01:42;16.38;;;6.78;;
78668;SDS011;67984;45.118;20.724;2023-02-22T10:11:48;18.25;;;9.18;;
78668;SDS011;67984;45.118;20.724;2023-02-22T10:32:14;14.75;;;7.93;;
78668;SDS011;67984;45.118;20.724;2023-02-22T10:42:21;9.85;;;6.53;;
78668;SDS011;67984;45.118;20.724;2023-02-22T10:52:29;12.85;;;6.93;;
78668;SDS011;67984;45.118;20.724;2023-02-22T11:02:34;12.45;;;6.15;;
78668;SDS011;67984;45.118;20.724;2023-02-22T11:12:35;10.27;;;6.05;;
78668;SDS011;67984;45.118;20.724;2023-02-22T11:22:41;11.80;;;5.43;;
78668;SDS011;67984;45.118;20.724;2023-02-22T11:32:55;5.85;;;4.15;;
78668;SDS011;67984;45.118;20.724;2023-02-22T11:43:07;7.38;;;3.75;;
78668;SDS011;67984;45.118;20.724;2023-02-22T12:24:16;8.70;;;4.47;;
78668;SDS011;67984;45.118;20.724;2023-02-22T12:45:00;8.25;;;4.40;;
78668;SDS011;67984;45.118;20.724;2023-02-22T13:05:33;5.80;;;4.20;;
78668;SDS011;67984;45.118;20.724;2023-02-22T13:36:04;4.53;;;2.88;;
78668;SDS011;67984;45.118;20.724;2023-02-22T13:56:32;6.75;;;3.72;;
78668;SDS011;67984;45.118;20.724;2023-02-22T14:06:37;6.60;;;3.97;;
78668;SDS011;67984;45.118;20.724;2023-02-22T14:16:40;13.70;;;5.40;;
78668;SDS011;67984;45.118;20.724;2023-02-22T14:26:52;14.70;;;7.03;;
78668;SDS011;67984;45.118;20.724;2023-02-22T14:37:00;9.20;;;4.55;;
78668;SDS011;67984;45.118;20.724;2023-02-22T14:47:08;9.68;;;5.10;;
78668;SDS011;67984;45.118;20.724;2023-02-22T14:57:48;10.82;;;6.18;;
78668;SDS011;67984;45.118;20.724;2023-02-22T15:08:00;13.75;;;7.45;;
78668;SDS011;67984;45.118;20.724;2023-02-22T15:18:02;32.88;;;14.55;;
78668;SDS011;67984;45.118;20.724;2023-02-22T15:28:05;50.72;;;22.15;;
78668;SDS011;67984;45.118;20.724;2023-02-22T15:48:12;15.75;;;8.55;;
78668;SDS011;67984;45.118;20.724;2023-02-22T16:08:19;77.47;;;33.65;;
78668;SDS011;67984;45.118;20.724;2023-02-22T16:18:35;171.68;;;73.13;;
78668;SDS011;67984;45.118;20.724;2023-02-22T16:28:37;117.35;;;48.00;;
78668;SDS011;67984;45.118;20.724;2023-02-22T16:38:56;171.02;;;72.68;;
78668;SDS011;67984;45.118;20.724;2023-02-22T16:48:57;142.33;;;64.47;;
78668;SDS011;67984;45.118;20.724;2023-02-22T16:59:04;366.38;;;167.43;;
78668;SDS011;67984;45.118;20.724;2023-02-22T17:09:14;565.47;;;281.30;;
78668;SDS011;67984;45.118;20.724;2023-02-22T17:19:33;369.80;;;153.60;;
78668;SDS011;67984;45.118;20.724;2023-02-22T17:29:34;234.13;;;91.00;;
78668;SDS011;67984;45.118;20.724;2023-02-22T17:39:35;208.10;;;84.60;;
78668;SDS011;67984;45.118;20.724;2023-02-22T17:49:35;230.00;;;83.27;;
78668;SDS011;67984;45.118;20.724;2023-02-22T17:59:36;171.88;;;68.40;;
78668;SDS011;67984;45.118;20.724;2023-02-22T18:09:37;61.20;;;25.97;;
78668;SDS011;67984;45.118;20.724;2023-02-22T18:19:38;32.10;;;14.77;;
78668;SDS011;67984;45.118;20.724;2023-02-22T18:29:39;54.15;;;22.25;;
78668;SDS011;67984;45.118;20.724;2023-02-22T18:39:40;125.03;;;48.25;;
78668;SDS011;67984;45.118;20.724;2023-02-22T18:49:42;87.15;;;33.95;;
78668;SDS011;67984;45.118;20.724;2023-02-22T18:59:43;58.47;;;22.80;;
78668;SDS011;67984;45.118;20.724;2023-02-22T19:09:44;81.82;;;33.33;;
78668;SDS011;67984;45.118;20.724;2023-02-22T19:19:47;92.82;;;38.50;;
78668;SDS011;67984;45.118;20.724;2023-02-22T19:29:48;83.78;;;34.30;;
78668;SDS011;67984;45.118;20.724;2023-02-22T19:39:49;65.72;;;27.65;;
78668;SDS011;67984;45.118;20.724;2023-02-22T19:49:50;57.10;;;24.60;;
78668;SDS011;67984;45.118;20.724;2023-02-22T19:59:52;87.53;;;37.53;;
78668;SDS011;67984;45.118;20.724;2023-02-22T20:09:54;113.15;;;45.75;;
78668;SDS011;67984;45.118;20.724;2023-02-22T20:19:55;187.55;;;69.15;;
78668;SDS011;67984;45.118;20.724;2023-02-22T20:29:56;87.23;;;38.67;;
78668;SDS011;67984;45.118;20.724;2023-02-22T20:40:01;77.85;;;32.67;;
78668;SDS011;67984;45.118;20.724;2023-02-22T20:50:04;88.22;;;36.88;;
78668;SDS011;67984;45.118;20.724;2023-02-22T21:00:06;126.78;;;48.53;;
78668;SDS011;67984;45.118;20.724;2023-02-22T21:10:09;147.27;;;59.70;;
78668;SDS011;67984;45.118;20.724;2023-02-22T21:20:10;238.68;;;91.55;;
78668;SDS011;67984;45.118;20.724;2023-02-22T21:30:12;361.20;;;132.48;;
78668;SDS011;67984;45.118;20.724;2023-02-22T21:40:14;227.32;;;85.30;;
78668;SDS011;67984;45.118;20.724;2023-02-22T21:50:18;279.70;;;102.18;;
78668;SDS011;67984;45.118;20.724;2023-02-22T22:00:19;248.63;;;95.30;;
78668;SDS011;67984;45.118;20.724;2023-02-22T22:10:28;147.05;;;53.60;;
78668;SDS011;67984;45.118;20.724;2023-02-22T22:20:32;87.63;;;35.78;;
78668;SDS011;67984;45.118;20.724;2023-02-22T22:30:33;140.05;;;50.50;;
78668;SDS011;67984;45.118;20.724;2023-02-22T22:40:36;117.85;;;41.60;;
78668;SDS011;67984;45.118;20.724;2023-02-22T22:50:38;78.10;;;30.60;;
78668;SDS011;67984;45.118;20.724;2023-02-22T23:00:38;46.77;;;19.57;;
78668;SDS011;67984;45.118;20.724;2023-02-22T23:10:40;168.52;;;61.47;;
78668;SDS011;67984;45.118;20.724;2023-02-22T23:20:41;171.00;;;62.03;;
78668;SDS011;67984;45.118;20.724;2023-02-22T23:30:42;104.87;;;40.07;;
78668;SDS011;67984;45.118;20.724;2023-02-22T23:40:43;57.60;;;22.45;;
78668;SDS011;67984;45.118;20.724;2023-02-22T23:50:45;56.33;;;23.10;;
